Terminal Aerodrome Forecast
Issued by NWS Charleston, SC

Current Version | Previous Version | Text Only | Print | Product List | Glossary On
Versions: 1 2 3 4 5 6 7 8 9 10 11 12 13 14
000
FTUS42 KCHS 251151 CCA
TAFCHS
TAF COR
KCHS 251151Z 2512/2612 01009KT P6SM SCT025 BKN250
     FM260000 01006KT P6SM FEW070 SCT250
     FM260800 34005KT P6SM FEW008 SCT015=

USA.gov is the U.S. government's official web portal to all federal, state and local government web resources and services.